Hlavní strana
METAR-TAF:

METAR-TAF

Letiště :

Cervia, Itálie

zeměpisná šířka: 44-13N, zeměpisná délka: 012-18E, výška: 6 m

Aktuální stav počasí

Zpráva byla vytvořena před 48 minutami, v 06:55 UTC
Západojihozápadní vítr 2 kt
Teplota 0°C
Vlhkost vzduchu 86%
Tlak 1027 hPa
Viditelnost: 2500 m
kouřmo

METAR: LIPC 210655Z 25002KT 2500 BR NSC 00/M02 Q1027 RMK SCT SCT200 VIS MIN 2500 WIND THR11 /////KT WIND THR29 25002KT YLO

Čas: 08:43 (07:43 UTC)

Předpověď počasí

Zpráva byla vytvořena před 2 hodinami a 43 minutami, v 05:00 UTC
Předpověď platná od 21 v 06 UTC do 21 v 15 UTC
vítr z různých směrů 3 kt
Viditelnost: 0800 m
mlha
Změna
od 21 v 06 UTC do 21 v 08 UTC
Viditelnost: 1500 m
kouřmo
Změna
od 21 v 08 UTC do 21 v 10 UTC
Viditelnost: 5000 m
kouřmo

TAF: LIPC 210500Z 2106/2115 VRB03KT 0800 FG NSC BECMG 2106/2108 1500 BR BECMG 2108/2110 5000 BR

Stav a předpovědi počasí z více než 4 000 letišť (zprávy METAR a TAF).

Červené a žluté tečky na mapě představují dostupné meteorologické stanice.

Když kurzor umístíte na tečku, zobrazí se název stanice.

Pak kliknutím zobrazíte stav a předpověď počasí.

Chcete-li změnit mapu, kliknutím na zelené tlačítko se znaménkem +mapu přiblížíte, kliknutím na zelené tlačítko se znaménkem – mapu oddálíte a kliknutím na zelené šipky přejdete na sousední mapy.


METAR-TAF: